Flight Track Log - Related Links

Times and Time Zones

All times are in EDT time to prevent confusion due to time zone crossing. See the JBU56 flight status page for this flight to view local times or setup timezone preferences in your user account.

Time Position Orientation Groundspeed Altitude Reporting Facility
EDT Latitude Longitude Course Direction KTS MPH feet Rate Location/Type
Sun 08:43:01 AM 38.9667 -77.5167 78° East 172 198 1,900  Level Potomac TRACON
Sun 08:43:55 AM 39.0000 -77.5667 311° West 223 257 3,500 2,211 Climbing Potomac TRACON
Sun 08:44:55 AM 39.0667 -77.5500 11° North 301 346 6,100 3,000 Climbing Potomac TRACON
Sun 08:45:55 AM 39.1333 -77.5000 30° Northeast 307 353 9,500 1,950 Climbing Potomac TRACON
Sun 08:46:00 AM 39.0210 -77.0013 77° East  Level FlightAware Approximate
Sun 08:46:55 AM 39.1667 -77.3833 70° East 331 381 10,000  Level Potomac TRACON
Sun 08:47:00 AM 39.0416 -76.8839 78° East  Level FlightAware Approximate
Sun 08:48:00 AM 39.0630 -76.7555 78° East  Level FlightAware Approximate
Sun 08:49:20 AM 39.1231 -77.1086 101° East 352 405 13,000  Level Washington Center
Sun 08:50:23 AM 39.0942 -76.9781 106° East 381 438 15,300 2,323 Climbing Washington Center
Sun 08:51:24 AM 39.1064 -76.8361 84° East 397 457 17,800 2,081 Climbing Washington Center
Sun 08:52:27 AM 39.1178 -76.6900 84° East 403 464 19,600 1,887 Climbing Washington Center
Sun 08:53:28 AM 39.1281 -76.5381 85° East 419 482 21,700 1,632 Climbing Washington Center
Sun 08:54:32 AM 39.1411 -76.3833 84° East 431 496 23,000 614 Climbing Washington Center
Sun 08:55:35 AM 39.1569 -76.1958 84° East 437 503 23,000 677 Level Washington Center
Sun 08:56:36 AM 39.1733 -76.0411 82° East 443 510 24,400 1,403 Climbing Washington Center
Sun 08:57:39 AM 39.2011 -75.8828 77° East 458 527 25,900 1,258 Climbing Washington Center
Sun 08:58:40 AM 39.2847 -75.7617 48° Northeast 459 528 27,000 532 Climbing Washington Center
Sun 08:59:43 AM 39.3742 -75.6472 45° Northeast 456 525 27,000  Level Washington Center
Sun 09:00:44 AM 39.4628 -75.5314 45° Northeast 454 522 27,000  Level Washington Center
Sun 09:01:48 AM 39.5683 -75.3928 45° Northeast 452 520 27,000  Level Washington Center
Sun 09:02:48 AM 39.6569 -75.2753 46° Northeast 456 525 27,000  Level Washington Center
Sun 09:03:50 AM 39.7425 -75.1525 48° Northeast 456 525 27,000  Level Washington Center
Sun 09:04:52 AM 39.8364 -75.0211 47° Northeast 453 521 27,000  Level Washington Center
Sun 09:05:55 AM 39.9272 -74.8911 48° Northeast 452 520 27,000  Level Washington Center
Sun 09:06:57 AM 40.0044 -74.7786 48° Northeast 454 522 27,000  Level Washington Center
Sun 09:07:58 AM 40.0892 -74.6464 50° Northeast 471 542 27,000  Level Washington Center
Sun 09:09:02 AM 40.1947 -74.4856 49° Northeast 473 544 27,000  Level New York Center
Sun 09:10:02 AM 40.2803 -74.3514 50° Northeast 478 550 27,000  Level New York Center
Sun 09:11:02 AM 40.3675 -74.2142 50° Northeast 484 557 27,000  Level New York Center
Sun 09:12:02 AM 40.4547 -74.0822 49° Northeast 484 557 27,000  Level New York Center
Sun 09:13:02 AM 40.5419 -73.9444 50° Northeast 484 557 27,000  Level New York Center
Sun 09:14:02 AM 40.6267 -73.8089 51° Northeast 484 557 27,000  Level New York Center
Sun 09:16:15 AM 40.8189 -73.5089 50° Northeast 488 562 27,000 -156 Level Washington Center
Sun 09:17:14 AM 40.9047 -73.3722 50° Northeast 484 557 26,500 -650 Descending Boston Center
Sun 09:18:15 AM 40.9811 -73.2622 47° Northeast 481 554 25,700 -885 Descending Boston Center
Sun 09:19:16 AM 41.0675 -73.1331 48° Northeast 474 545 24,700 -984 Descending Boston Center
Sun 09:20:17 AM 41.1519 -73.0056 49° Northeast 466 536 23,700 -836 Descending Boston Center
Sun 09:21:18 AM 41.2250 -72.8261 62° Northeast 462 532 23,000 -344 Descending Boston Center
Sun 09:22:19 AM 41.2811 -72.6706 64° Northeast 463 533 23,000  Level Boston Center
Sun 09:23:20 AM 41.3367 -72.5150 65° Northeast 463 533 23,000  Level Boston Center
Sun 09:24:21 AM 41.3942 -72.3586 64° Northeast 464 534 23,000  Level Boston Center
Sun 09:25:22 AM 41.4503 -72.2022 64° Northeast 465 535 23,000  Level Boston Center
Sun 09:26:23 AM 41.5061 -72.0464 64° Northeast 466 536 23,000 -1,279 Level Boston Center
Sun 09:27:24 AM 41.5589 -71.8981 65° Northeast 466 536 20,400 -2,361 Descending Boston Center
Sun 09:28:25 AM 41.6206 -71.7244 65° Northeast 448 516 18,200 -1,869 Descending Boston Center
Sun 09:29:26 AM 41.6703 -71.5800 65° Northeast 438 504 16,600 -1,820 Descending Boston Center
Sun 09:30:27 AM 41.7192 -71.4450 64° Northeast 408 470 14,500 -2,016 Descending Boston Center
Sun 09:31:28 AM 41.7792 -71.3022 61° Northeast 410 472 12,500 -1,721 Descending Boston Center
Sun 09:32:29 AM 41.8336 -71.1736 60° Northeast 403 464 11,000 -738 Descending Boston Center
Sun 09:33:30 AM 41.8844 -71.0558 60° Northeast 359 413 11,000  Level Boston Center
Sun 09:34:31 AM 41.9336 -70.9422 60° Northeast 353 406 11,000  Level Boston Center
Sun 09:35:31 AM 41.9797 -70.8353 60° Northeast 353 406 11,000 -545 Level Boston Center
Sun 09:36:32 AM 42.0308 -70.7300 57° Northeast 334 384 9,900 -1,279 Descending Boston Center
Sun 09:37:33 AM 42.0908 -70.6414 48° Northeast 317 365 8,400 -1,377 Descending Boston Center
Sun 09:38:34 AM 42.1650 -70.5986 23° Northeast 310 357 7,100 -1,180 Descending Boston Center
Sun 09:39:35 AM 42.2450 -70.5772 11° North 296 341 6,000 -1,033 Descending Boston Center
Sun 09:40:36 AM 42.3233 -70.5619 North 288 331 5,000 -492 Descending Boston Center
Sun 09:41:37 AM 42.3769 -70.6211 321° Northwest 256 295 5,000  Level Boston Center
Sun 09:42:38 AM 42.4347 -70.6975 316° Northwest 244 281 5,000  Level Boston Center
Sun 09:43:39 AM 42.4825 -70.7608 316° Northwest 244 281 5,000  Level Boston Center
Sun 09:44:39 AM 42.5350 -70.8094 326° Northwest 245 282 5,000 -496 Level Boston Center
Sun 09:45:40 AM 42.5806 -70.8378 335° Northwest 250 288 4,000 -885 Descending Boston Center
Sun 09:46:41 AM 42.5547 -70.8989 240° Southwest 180 207 3,200 -492 Descending Boston Center
Sun 09:47:42 AM 42.5197 -70.9303 213° Southwest 153 176 3,000 -443 Descending Boston Center
Sun 09:48:43 AM 42.4797 -70.9503 200° South 152 175 2,300 -787 Descending Boston Center
Sun 09:49:44 AM 42.4381 -70.9692 198° South 153 176 1,400 -836 Descending Boston Center
Sun 09:50:45 AM 42.4019 -70.9869 200° South 143 165 600 10,623 Descending Boston Center
Sun 09:51:46 AM 42.3686 -71.0025 199° South 141 162 23,000 22,033 Climbing Boston Center

Login

Don't have an account? Register now (free) for customized features, flight alerts, and more!